createdAt,value
2019-05-07T00:01:58.115Z,8.69
2019-05-07T00:04:26.921Z,8.72
2019-05-07T00:06:55.554Z,8.73
2019-05-07T00:09:24.212Z,8.78
2019-05-07T00:11:53.475Z,8.76
2019-05-07T00:14:23.229Z,8.68
2019-05-07T00:16:53.426Z,8.71
2019-05-07T00:19:23.180Z,8.67
2019-05-07T00:21:52.795Z,8.54
2019-05-07T00:24:22.364Z,8.54
2019-05-07T00:26:53.199Z,8.51
2019-05-07T00:29:22.405Z,8.43
2019-05-07T00:31:52.084Z,8.35
2019-05-07T00:34:22.528Z,8.35
2019-05-07T00:36:58.794Z,8.43
2019-05-07T00:39:29.069Z,8.49
2019-05-07T00:42:15.739Z,8.49
2019-05-07T00:44:57.956Z,8.49
2019-05-07T00:47:26.532Z,8.48
2019-05-07T00:49:56.795Z,8.40
2019-05-07T00:52:25.455Z,8.42
2019-05-07T00:54:54.109Z,8.38
2019-05-07T00:57:22.949Z,8.37
2019-05-07T00:59:52.466Z,8.33
2019-05-07T01:02:22.919Z,8.44
2019-05-07T01:04:53.206Z,8.42
2019-05-07T01:07:22.915Z,8.44
2019-05-07T01:09:52.453Z,8.47
2019-05-07T01:12:22.263Z,8.44
2019-05-07T01:14:52.897Z,8.46
2019-05-07T01:17:22.743Z,8.51
2019-05-07T01:19:53.256Z,8.51
2019-05-07T01:22:22.376Z,8.52
2019-05-07T01:24:52.770Z,8.37
2019-05-07T01:27:22.596Z,8.36
2019-05-07T01:29:52.802Z,8.33
2019-05-07T01:32:32.976Z,8.21
2019-05-07T01:35:09.201Z,8.22
2019-05-07T01:37:37.755Z,8.28
2019-05-07T01:40:06.686Z,8.26
2019-05-07T01:42:36.693Z,8.13
2019-05-07T01:45:07.721Z,8.16
2019-05-07T01:47:36.408Z,8.18
2019-05-07T01:50:05.526Z,8.18
2019-05-07T01:52:34.264Z,8.24
2019-05-07T01:55:03.414Z,8.17
2019-05-07T01:57:32.767Z,8.13
2019-05-07T02:00:02.639Z,8.27
2019-05-07T02:02:33.096Z,8.29
2019-05-07T02:05:06.301Z,8.41
2019-05-07T02:07:36.490Z,8.41
2019-05-07T02:10:14.127Z,8.47
2019-05-07T02:12:43.031Z,8.50
2019-05-07T02:15:12.077Z,8.50
2019-05-07T02:17:42.839Z,8.49
2019-05-07T02:20:13.064Z,8.50
2019-05-07T02:22:42.713Z,8.50
2019-05-07T02:25:12.672Z,8.41
2019-05-07T02:27:42.227Z,8.47
2019-05-07T02:30:14.428Z,8.43
2019-05-07T02:32:43.358Z,8.42
2019-05-07T02:35:13.638Z,8.45
2019-05-07T02:37:51.089Z,8.49
2019-05-07T02:40:16.061Z,8.39
2019-05-07T02:42:44.691Z,8.46
2019-05-07T02:45:32.935Z,8.48
2019-05-07T02:48:03.256Z,8.40
2019-05-07T02:50:38.494Z,8.45
2019-05-07T02:53:18.220Z,8.41
2019-05-07T02:55:58.001Z,8.41
2019-05-07T02:58:26.821Z,8.41
2019-05-07T03:00:57.022Z,8.49
2019-05-07T03:03:25.849Z,8.46
2019-05-07T03:05:54.763Z,8.51
2019-05-07T03:08:27.577Z,8.56
2019-05-07T03:10:55.987Z,8.50
2019-05-07T03:13:24.770Z,8.47
2019-05-07T03:15:55.206Z,8.45
2019-05-07T03:18:25.460Z,8.27
2019-05-07T03:20:58.312Z,8.20
2019-05-07T03:23:34.075Z,8.19
2019-05-07T03:26:09.755Z,8.20
2019-05-07T03:28:53.121Z,8.18
2019-05-07T03:31:27.396Z,8.15
2019-05-07T03:34:06.879Z,8.02
2019-05-07T03:36:39.706Z,8.05
2019-05-07T03:39:09.795Z,8.07
2019-05-07T03:41:38.831Z,8.07
2019-05-07T03:44:24.715Z,8.12
2019-05-07T03:47:02.149Z,8.10
2019-05-07T03:49:34.516Z,8.10
2019-05-07T03:52:04.393Z,8.17
2019-05-07T03:54:34.183Z,8.29
2019-05-07T03:57:10.660Z,8.27
2019-05-07T03:59:34.787Z,8.27
2019-05-07T04:02:06.615Z,8.48
2019-05-07T04:04:35.436Z,8.48
2019-05-07T04:07:04.390Z,8.53
2019-05-07T04:09:33.599Z,8.53
2019-05-07T04:12:03.896Z,8.63
2019-05-07T04:14:34.371Z,8.72
2019-05-07T04:17:14.207Z,8.83
2019-05-07T04:19:33.733Z,8.98
2019-05-07T04:22:04.247Z,9.05
2019-05-07T04:24:37.377Z,9.07
2019-05-07T04:27:13.088Z,9.21
2019-05-07T04:29:42.948Z,9.18
2019-05-07T04:32:15.127Z,9.32
2019-05-07T04:34:45.422Z,9.32
2019-05-07T04:37:14.664Z,9.31
2019-05-07T04:39:55.362Z,9.31
2019-05-07T04:42:24.637Z,9.21
2019-05-07T04:44:54.161Z,9.36
2019-05-07T04:47:34.725Z,9.36
2019-05-07T04:49:55.177Z,9.37
2019-05-07T04:52:36.168Z,9.45
2019-05-07T04:55:06.322Z,9.49
2019-05-07T04:57:35.083Z,9.49
2019-05-07T05:00:05.207Z,9.57
2019-05-07T05:02:38.261Z,9.65
2019-05-07T05:05:06.983Z,9.75
2019-05-07T05:07:35.885Z,10.07
2019-05-07T05:10:07.411Z,10.10
2019-05-07T05:12:36.136Z,10.17
2019-05-07T05:16:02.419Z,10.26
2019-05-07T05:22:31.804Z,10.41
2019-05-07T05:31:22.844Z,10.54
2019-05-07T05:34:49.193Z,10.87
2019-05-07T05:38:13.873Z,11.11
2019-05-07T05:47:06.431Z,12.02
2019-05-07T05:53:15.870Z,12.95
2019-05-07T06:19:05.515Z,13.65
2019-05-07T06:31:57.435Z,13.55
2019-05-07T06:34:57.335Z,13.28
2019-05-07T06:40:55.991Z,12.82
2019-05-07T06:43:57.908Z,13.03
2019-05-07T06:59:28.415Z,12.81
2019-05-07T07:09:32.955Z,12.88
2019-05-07T07:18:48.628Z,12.15
2019-05-07T07:34:29.218Z,11.23
2019-05-07T07:37:47.976Z,11.12
2019-05-07T07:53:04.161Z,11.80
2019-05-07T08:08:24.952Z,13.07
2019-05-07T08:11:26.273Z,13.36
2019-05-07T08:18:07.458Z,13.34
2019-05-07T08:21:19.619Z,13.21
2019-05-07T08:30:52.591Z,13.61
2019-05-07T08:37:12.115Z,13.71
2019-05-07T08:52:17.972Z,12.25
2019-05-07T08:55:33.289Z,12.14
2019-05-07T08:58:43.622Z,11.94
2019-05-07T09:01:44.751Z,11.89
2019-05-07T09:05:09.318Z,11.79
2019-05-07T09:08:21.741Z,11.82
2019-05-07T09:11:56.044Z,11.82
2019-05-07T09:15:12.435Z,11.69
2019-05-07T09:18:23.032Z,11.88
2019-05-07T09:24:42.716Z,12.05
2019-05-07T09:45:05.206Z,12.19
2019-05-07T09:57:58.648Z,12.30
2019-05-07T10:01:12.880Z,12.05
2019-05-07T10:04:13.297Z,11.77
2019-05-07T10:07:05.854Z,11.69
2019-05-07T10:16:07.896Z,11.56
2019-05-07T10:19:17.700Z,11.48
2019-05-07T10:22:24.772Z,11.66
2019-05-07T10:25:37.777Z,11.70
2019-05-07T10:34:25.050Z,11.16
2019-05-07T10:36:53.950Z,11.25
2019-05-07T10:39:22.581Z,11.40
2019-05-07T10:41:51.317Z,11.34
2019-05-07T10:44:22.878Z,11.29
2019-05-07T10:47:09.374Z,11.29
2019-05-07T10:49:39.657Z,11.43
2019-05-07T10:52:08.301Z,11.75
2019-05-07T10:54:36.963Z,11.83
2019-05-07T10:57:05.631Z,11.70
2019-05-07T10:59:34.282Z,11.63
2019-05-07T11:02:07.288Z,11.53
2019-05-07T11:04:42.281Z,11.59
2019-05-07T11:07:06.432Z,11.60
2019-05-07T11:09:35.062Z,11.66
2019-05-07T11:12:03.779Z,11.71
2019-05-07T11:14:32.499Z,11.75
2019-05-07T11:17:02.770Z,11.49
2019-05-07T11:19:32.471Z,11.58
2019-05-07T11:22:01.202Z,11.40
2019-05-07T11:24:31.992Z,11.13
2019-05-07T11:27:02.313Z,11.01
2019-05-07T11:29:32.774Z,11.10
2019-05-07T11:32:01.265Z,11.04
2019-05-07T11:34:32.737Z,10.95
2019-05-07T11:37:02.439Z,10.95
2019-05-07T11:39:33.205Z,10.70
2019-05-07T11:42:12.736Z,10.70
2019-05-07T11:44:42.411Z,10.49
2019-05-07T11:47:22.498Z,10.30
2019-05-07T11:50:09.139Z,10.16
2019-05-07T11:52:48.550Z,10.05
2019-05-07T11:55:17.278Z,10.05
2019-05-07T11:57:45.942Z,9.92
2019-05-07T12:00:21.861Z,10.06
2019-05-07T12:02:51.424Z,10.02
2019-05-07T12:05:22.551Z,10.02
2019-05-07T12:07:50.593Z,9.99
2019-05-07T12:10:19.243Z,9.99
2019-05-07T12:12:47.888Z,10.02
2019-05-07T12:15:17.052Z,10.24
2019-05-07T12:17:45.727Z,10.48
2019-05-07T12:20:16.013Z,10.48
2019-05-07T12:22:48.105Z,10.62
2019-05-07T12:25:19.232Z,10.36
2019-05-07T12:27:49.561Z,10.23
2019-05-07T12:30:33.169Z,10.23
2019-05-07T12:33:06.283Z,10.20
2019-05-07T12:35:37.664Z,10.12
2019-05-07T12:38:06.394Z,10.05
2019-05-07T12:40:36.254Z,10.01
2019-05-07T12:43:04.918Z,10.03
2019-05-07T12:45:34.045Z,10.03
2019-05-07T12:48:02.741Z,9.96
2019-05-07T12:50:32.859Z,9.96
2019-05-07T12:53:03.385Z,10.04
2019-05-07T12:55:52.127Z,10.04
2019-05-07T12:58:21.849Z,10.20
2019-05-07T13:00:52.206Z,10.27
2019-05-07T13:03:22.530Z,10.27
2019-05-07T13:05:52.088Z,10.11
2019-05-07T13:08:22.977Z,10.11
2019-05-07T13:10:52.045Z,10.12
2019-05-07T13:13:20.776Z,10.03
2019-05-07T13:15:51.657Z,10.03
2019-05-07T13:18:20.068Z,10.00
2019-05-07T13:20:48.963Z,9.96
2019-05-07T13:23:17.629Z,9.84
2019-05-07T13:25:46.319Z,9.87
2019-05-07T13:28:15.234Z,9.87
2019-05-07T13:30:44.017Z,9.76
2019-05-07T13:33:13.508Z,9.62
2019-05-07T13:35:44.358Z,9.41
2019-05-07T13:38:14.653Z,9.41
2019-05-07T13:40:52.717Z,9.47
2019-05-07T13:43:23.179Z,9.43
2019-05-07T13:45:59.759Z,9.42
2019-05-07T13:48:28.675Z,9.39
2019-05-07T13:50:57.623Z,9.32
2019-05-07T13:53:26.352Z,9.31
2019-05-07T13:55:55.012Z,9.32
2019-05-07T13:58:24.284Z,9.24
2019-05-07T14:01:02.076Z,9.16
2019-05-07T14:03:32.914Z,9.12
2019-05-07T14:06:01.717Z,9.16
2019-05-07T14:08:33.344Z,9.07
2019-05-07T14:11:02.754Z,9.05
2019-05-07T14:13:31.628Z,9.00
2019-05-07T14:16:07.424Z,8.97
2019-05-07T14:18:37.792Z,8.90
2019-05-07T14:21:07.236Z,8.87
2019-05-07T14:23:36.291Z,8.86
2019-05-07T14:26:05.287Z,8.80
2019-05-07T14:28:34.019Z,8.83
2019-05-07T14:31:02.856Z,8.81
2019-05-07T14:33:39.105Z,8.87
2019-05-07T14:36:09.375Z,8.89
2019-05-07T14:38:39.689Z,8.93
2019-05-07T14:41:08.325Z,8.83
2019-05-07T14:43:47.971Z,8.85
2019-05-07T14:46:16.685Z,8.79
2019-05-07T14:48:45.549Z,8.74
2019-05-07T14:51:14.246Z,8.82
2019-05-07T14:53:43.069Z,8.75
2019-05-07T14:56:14.452Z,8.74
2019-05-07T14:58:43.699Z,8.79
2019-05-07T15:01:12.365Z,8.85
2019-05-07T15:03:42.391Z,8.87
2019-05-07T15:06:12.588Z,8.81
2019-05-07T15:08:43.039Z,8.88
2019-05-07T15:11:12.045Z,8.87
2019-05-07T15:13:42.765Z,8.79
2019-05-07T15:16:12.463Z,8.64
2019-05-07T15:18:43.866Z,8.63
2019-05-07T15:21:13.385Z,8.62
2019-05-07T15:23:42.629Z,8.64
2019-05-07T15:26:12.809Z,8.66
2019-05-07T15:28:43.389Z,8.65
2019-05-07T15:31:14.031Z,8.55
2019-05-07T15:33:42.847Z,8.47
2019-05-07T15:36:13.024Z,8.54
2019-05-07T15:38:43.411Z,8.60
2019-05-07T15:41:13.187Z,8.60
2019-05-07T15:43:46.177Z,8.64
2019-05-07T15:46:15.178Z,8.68
2019-05-07T15:48:43.915Z,8.69
2019-05-07T15:51:16.525Z,8.69
2019-05-07T15:56:37.427Z,8.69
2019-05-07T15:59:06.124Z,8.73
2019-05-07T16:01:34.696Z,8.92
2019-05-07T16:04:03.345Z,9.00
2019-05-07T16:06:32.424Z,9.06
2019-05-07T16:09:02.469Z,9.06
2019-05-07T16:11:32.589Z,9.08
2019-05-07T16:14:05.975Z,9.06
2019-05-07T16:16:36.253Z,9.04
2019-05-07T16:19:12.908Z,9.01
2019-05-07T16:21:42.552Z,9.00
2019-05-07T16:24:12.110Z,9.00
2019-05-07T16:26:41.895Z,9.06
2019-05-07T16:29:13.025Z,9.11
2019-05-07T16:31:40.945Z,9.12
2019-05-07T16:34:09.557Z,9.10
2019-05-07T16:36:38.200Z,9.12
2019-05-07T16:39:07.683Z,9.16
2019-05-07T16:41:36.332Z,9.13
2019-05-07T16:44:05.366Z,9.17
2019-05-07T16:46:34.003Z,9.09
2019-05-07T16:49:02.638Z,9.08
2019-05-07T16:51:33.069Z,9.08
2019-05-07T16:54:03.372Z,9.14
2019-05-07T16:56:33.359Z,9.11
2019-05-07T16:59:03.832Z,9.06
2019-05-07T17:01:32.621Z,9.00
2019-05-07T17:04:02.759Z,9.01
2019-05-07T17:06:32.131Z,9.03
2019-05-07T17:09:05.728Z,9.01
2019-05-07T17:11:34.359Z,9.02
2019-05-07T17:14:03.019Z,9.06
2019-05-07T17:16:31.879Z,9.04
2019-05-07T17:19:02.457Z,9.03
2019-05-07T17:21:32.390Z,9.03
2019-05-07T17:24:02.530Z,9.06
2019-05-07T17:26:31.372Z,9.02
2019-05-07T17:29:00.029Z,8.97
2019-05-07T17:31:28.777Z,9.07
2019-05-07T17:33:57.417Z,9.02
2019-05-07T17:36:25.988Z,9.09
2019-05-07T17:38:54.668Z,9.10
2019-05-07T17:41:27.034Z,9.13
2019-05-07T17:43:53.746Z,9.17
2019-05-07T17:46:22.392Z,9.07
2019-05-07T17:48:52.425Z,9.13
2019-05-07T17:51:39.142Z,9.11
2019-05-07T17:54:07.778Z,9.16
2019-05-07T17:56:36.420Z,9.17
2019-05-07T17:59:05.044Z,9.13
2019-05-07T18:01:35.329Z,9.08
2019-05-07T18:04:04.108Z,9.09
2019-05-07T18:06:32.662Z,9.09
2019-05-07T18:09:02.950Z,9.09
2019-05-07T18:11:32.416Z,9.15
2019-05-07T18:14:02.613Z,9.14
2019-05-07T18:16:33.143Z,9.14
2019-05-07T18:19:02.208Z,9.15
2019-05-07T18:21:32.568Z,9.08
2019-05-07T18:24:13.045Z,8.97
2019-05-07T18:26:33.729Z,9.09
2019-05-07T18:29:02.603Z,9.20
2019-05-07T18:31:42.064Z,9.15
2019-05-07T18:34:12.835Z,9.13
2019-05-07T18:36:42.224Z,9.12
2019-05-07T18:39:10.989Z,9.11
2019-05-07T18:41:41.594Z,9.18
2019-05-07T18:44:13.616Z,9.18
2019-05-07T18:46:40.357Z,9.14
2019-05-07T18:49:08.849Z,9.15
2019-05-07T18:51:37.543Z,9.05
2019-05-07T18:54:06.391Z,9.05
2019-05-07T18:56:35.023Z,9.24
2019-05-07T18:59:03.735Z,9.24
2019-05-07T19:01:33.995Z,9.15
2019-05-07T19:04:02.703Z,9.11
2019-05-07T19:06:31.857Z,9.11
2019-05-07T19:09:00.685Z,9.24
2019-05-07T19:11:29.402Z,9.20
2019-05-07T19:13:58.932Z,9.21
2019-05-07T19:16:27.663Z,9.25
2019-05-07T19:18:56.327Z,9.24
2019-05-07T19:21:25.187Z,9.14
2019-05-07T19:23:53.742Z,9.21
2019-05-07T19:26:22.320Z,9.18
2019-05-07T19:28:50.957Z,9.23
2019-05-07T19:31:21.870Z,9.22
2019-05-07T19:33:49.897Z,9.24
2019-05-07T19:36:18.532Z,9.14
2019-05-07T19:38:47.201Z,9.14
2019-05-07T19:41:15.889Z,9.22
2019-05-07T19:43:44.617Z,9.23
2019-05-07T19:46:13.298Z,9.17
2019-05-07T19:48:44.081Z,9.09
2019-05-07T19:51:12.483Z,9.17
2019-05-07T19:53:41.966Z,9.22
2019-05-07T19:56:12.500Z,9.15
2019-05-07T19:58:41.918Z,9.18
2019-05-07T20:01:12.226Z,9.16
2019-05-07T20:03:43.286Z,9.19
2019-05-07T20:06:12.906Z,9.23
2019-05-07T20:08:43.748Z,9.18
2019-05-07T20:11:19.497Z,9.19
2019-05-07T20:13:48.245Z,9.08
2019-05-07T20:16:22.940Z,9.08
2019-05-07T20:18:52.403Z,9.16
2019-05-07T20:21:22.897Z,9.16
2019-05-07T20:23:52.652Z,9.23
2019-05-07T20:26:23.087Z,9.20
2019-05-07T20:28:52.694Z,9.13
2019-05-07T20:31:22.538Z,9.16
2019-05-07T20:33:53.021Z,9.16
2019-05-07T20:36:22.039Z,9.18
2019-05-07T20:38:52.188Z,9.14
2019-05-07T20:41:23.056Z,9.11
2019-05-07T20:43:52.387Z,9.14
2019-05-07T20:46:21.199Z,9.15
2019-05-07T20:48:49.826Z,9.09
2019-05-07T20:51:18.470Z,9.13
2019-05-07T20:54:07.186Z,9.03
2019-05-07T20:56:46.631Z,9.05
2019-05-07T20:59:14.372Z,9.01
2019-05-07T21:01:43.108Z,9.01
2019-05-07T21:04:12.949Z,9.04
2019-05-07T21:06:43.314Z,9.10
2019-05-07T21:09:12.706Z,9.10
2019-05-07T21:11:43.127Z,9.12
2019-05-07T21:14:12.756Z,9.07
2019-05-07T21:16:42.532Z,9.02
2019-05-07T21:19:12.921Z,9.04
2019-05-07T21:21:42.274Z,9.04
2019-05-07T21:24:13.096Z,9.08
2019-05-07T21:26:42.330Z,9.00
2019-05-07T21:29:13.630Z,9.05
2019-05-07T21:31:43.250Z,9.07
2019-05-07T21:34:12.564Z,9.10
2019-05-07T21:36:43.244Z,9.09
2019-05-07T21:39:13.137Z,9.16
2019-05-07T21:41:42.607Z,9.08
2019-05-07T21:44:11.597Z,9.09
2019-05-07T21:46:42.347Z,9.14
2019-05-07T21:49:12.265Z,9.13
2019-05-07T21:51:41.084Z,9.16
2019-05-07T21:54:12.164Z,9.13
2019-05-07T21:56:54.667Z,9.19
2019-05-07T21:59:25.382Z,9.27
2019-05-07T22:02:02.292Z,9.25
2019-05-07T22:04:30.975Z,9.20
2019-05-07T22:06:59.541Z,9.25
2019-05-07T22:09:28.197Z,9.31
2019-05-07T22:11:56.865Z,9.27
2019-05-07T22:14:25.506Z,9.31
2019-05-07T22:16:54.684Z,9.36
2019-05-07T22:19:23.345Z,9.31
2019-05-07T22:21:52.378Z,9.33
2019-05-07T22:24:22.618Z,9.21
2019-05-07T22:26:51.251Z,9.35
2019-05-07T22:29:19.891Z,9.34
2019-05-07T22:31:56.116Z,9.34
2019-05-07T22:34:26.334Z,9.37
2019-05-07T22:36:55.191Z,9.35
2019-05-07T22:39:23.885Z,9.40
2019-05-07T22:41:52.435Z,9.19
2019-05-07T22:44:23.847Z,9.19
2019-05-07T22:46:52.726Z,9.19
2019-05-07T22:49:22.881Z,9.12
2019-05-07T22:51:54.614Z,9.12
2019-05-07T22:54:22.679Z,9.22
2019-05-07T22:56:59.002Z,9.24
2019-05-07T22:59:28.560Z,9.10
2019-05-07T23:01:57.271Z,9.10
2019-05-07T23:04:25.876Z,9.19
2019-05-07T23:06:55.581Z,9.18
2019-05-07T23:09:24.226Z,9.12
2019-05-07T23:11:54.947Z,9.13
2019-05-07T23:14:23.673Z,9.12
2019-05-07T23:16:55.322Z,9.15
2019-05-07T23:19:22.520Z,9.15
2019-05-07T23:21:52.198Z,9.16
2019-05-07T23:24:22.642Z,9.12
2019-05-07T23:26:53.571Z,9.15
2019-05-07T23:29:23.315Z,9.16
2019-05-07T23:31:52.822Z,9.13
2019-05-07T23:34:22.922Z,9.16
2019-05-07T23:36:53.321Z,9.02
2019-05-07T23:39:24.184Z,9.16
2019-05-07T23:41:54.457Z,9.16
2019-05-07T23:44:23.153Z,9.21
2019-05-07T23:46:52.150Z,9.21
2019-05-07T23:49:23.244Z,9.17
2019-05-07T23:51:53.069Z,9.17
2019-05-07T23:54:23.168Z,9.18
2019-05-07T23:57:04.910Z,9.11
2019-05-07T23:59:22.472Z,9.09
